createdAt,value
2023-01-07T00:02:09.788Z,98430.63
2023-01-07T00:04:42.851Z,98442.84
2023-01-07T00:07:17.272Z,98432.75
2023-01-07T00:09:50.280Z,98433.44
2023-01-07T00:12:23.335Z,98428.66
2023-01-07T00:14:56.390Z,98428.88
2023-01-07T00:17:29.419Z,98430.19
2023-01-07T00:20:02.487Z,98424.66
2023-01-07T00:22:36.896Z,98428.94
2023-01-07T00:25:10.768Z,98432.28
2023-01-07T00:27:43.802Z,98422.97
2023-01-07T00:30:16.928Z,98422.88
2023-01-07T00:33:04.624Z,98424.09
2023-01-07T00:35:37.796Z,98413.13
2023-01-07T00:38:13.000Z,98413.59
2023-01-07T00:40:46.066Z,98408.06
2023-01-07T00:43:19.142Z,98406.38
2023-01-07T00:45:52.199Z,98401.50
2023-01-07T00:48:25.322Z,98394.88
2023-01-07T00:50:58.515Z,98402.53
2023-01-07T00:53:32.949Z,98397.84
2023-01-07T00:56:06.499Z,98398.88
2023-01-07T00:58:39.538Z,98399.75
2023-01-07T01:01:13.216Z,98394.53
2023-01-07T01:03:46.340Z,98398.53
2023-01-07T01:06:19.414Z,98393.41
2023-01-07T01:08:53.796Z,98384.91
2023-01-07T01:11:26.834Z,98388.31
2023-01-07T01:13:59.914Z,98393.41
2023-01-07T01:16:32.977Z,98394.53
2023-01-07T01:19:06.037Z,98392.75
2023-01-07T01:21:41.978Z,98384.78
2023-01-07T01:24:16.397Z,98387.44
2023-01-07T01:26:49.459Z,98390.00
2023-01-07T01:29:22.829Z,98387.22
2023-01-07T01:31:55.954Z,98384.56
2023-01-07T01:34:29.073Z,98392.31
2023-01-07T01:37:02.137Z,98387.22
2023-01-07T01:39:36.532Z,98386.34
2023-01-07T01:42:13.833Z,98385.69
2023-01-07T01:44:51.073Z,98383.13
2023-01-07T01:47:35.392Z,98383.22
2023-01-07T01:50:16.256Z,98380.81
2023-01-07T01:52:54.103Z,98384.78
2023-01-07T01:55:33.600Z,98380.25
2023-01-07T01:58:10.974Z,98371.16
2023-01-07T02:00:44.607Z,98378.69
2023-01-07T02:03:21.372Z,98381.56
2023-01-07T02:05:54.806Z,98379.22
2023-01-07T02:08:27.954Z,98371.06
2023-01-07T02:11:19.616Z,98379.44
2023-01-07T02:14:09.631Z,98372.25
2023-01-07T02:16:51.401Z,98363.94
2023-01-07T02:20:15.581Z,98361.97
2023-01-07T02:23:49.086Z,98361.31
2023-01-07T02:26:56.032Z,98351.34
2023-01-07T02:30:34.569Z,98359.06
2023-01-07T02:33:39.276Z,98348.66
2023-01-07T02:36:49.909Z,98343.34
2023-01-07T02:39:42.295Z,98339.03
2023-01-07T02:42:24.235Z,98331.16
2023-01-07T02:45:06.334Z,98332.94
2023-01-07T02:47:42.405Z,98323.84
2023-01-07T02:50:16.801Z,98321.41
2023-01-07T02:52:49.885Z,98320.97
2023-01-07T02:55:28.558Z,98319.41
2023-01-07T02:58:42.177Z,98309.44
2023-01-07T03:01:38.667Z,98313.00
2023-01-07T03:04:28.945Z,98312.31
2023-01-07T03:07:21.104Z,98316.31
2023-01-07T03:10:04.528Z,98303.38
2023-01-07T03:12:43.401Z,98307.00
2023-01-07T03:15:21.176Z,98302.03
2023-01-07T03:18:02.003Z,98295.16
2023-01-07T03:20:39.342Z,98286.41
2023-01-07T03:23:16.235Z,98290.41
2023-01-07T03:25:52.427Z,98281.53
2023-01-07T03:28:29.928Z,98276.88
2023-01-07T03:31:03.854Z,98275.56
2023-01-07T03:33:42.643Z,98263.56
2023-01-07T03:36:20.673Z,98273.22
2023-01-07T03:38:56.667Z,98271.91
2023-01-07T03:41:47.645Z,98270.25
2023-01-07T03:44:20.679Z,98264.59
2023-01-07T03:46:54.312Z,98265.59
2023-01-07T03:49:27.498Z,98265.38
2023-01-07T03:52:00.525Z,98262.47
2023-01-07T03:54:34.925Z,98250.97
2023-01-07T03:57:07.964Z,98250.31
2023-01-07T03:59:41.020Z,98245.88
2023-01-07T04:02:14.297Z,98240.09
2023-01-07T04:04:47.592Z,98242.75
2023-01-07T04:07:20.786Z,98227.03
2023-01-07T04:09:55.157Z,98231.59
2023-01-07T04:12:28.277Z,98223.19
2023-01-07T04:15:01.598Z,98221.84
2023-01-07T04:17:34.789Z,98221.28
2023-01-07T04:20:10.346Z,98223.06
2023-01-07T04:22:43.390Z,98228.69
2023-01-07T04:25:17.996Z,98218.41
2023-01-07T04:27:51.099Z,98219.50
2023-01-07T04:30:24.134Z,98216.38
2023-01-07T04:32:57.200Z,98212.28
2023-01-07T04:35:30.235Z,98215.72
2023-01-07T04:38:03.293Z,98219.94
2023-01-07T04:40:37.723Z,98211.09
2023-01-07T04:43:11.174Z,98209.31
2023-01-07T04:45:44.282Z,98211.53
2023-01-07T04:48:17.934Z,98208.31
2023-01-07T04:50:51.009Z,98202.44
2023-01-07T04:53:24.524Z,98203.13
2023-01-07T04:55:58.978Z,98202.69
2023-01-07T04:58:32.042Z,98210.41
2023-01-07T05:01:05.398Z,98200.81
2023-01-07T05:03:38.829Z,98196.59
2023-01-07T05:06:11.986Z,98190.56
2023-01-07T05:08:45.050Z,98183.41
2023-01-07T05:11:21.671Z,98181.53
2023-01-07T05:13:54.868Z,98179.66
2023-01-07T05:16:28.000Z,98181.63
2023-01-07T05:19:01.070Z,98175.34
2023-01-07T05:21:34.169Z,98174.56
2023-01-07T05:24:08.799Z,98184.53
2023-01-07T05:26:43.206Z,98178.56
2023-01-07T05:29:16.288Z,98170.13
2023-01-07T05:31:49.314Z,98172.09
2023-01-07T05:34:22.374Z,98157.06
2023-01-07T05:36:55.474Z,98158.69
2023-01-07T05:39:28.607Z,98151.06
2023-01-07T05:42:03.035Z,98149.63
2023-01-07T05:44:36.138Z,98146.97
2023-01-07T05:47:09.534Z,98150.72
2023-01-07T05:49:42.556Z,98143.34
2023-01-07T05:52:15.597Z,98143.13
2023-01-07T05:54:48.650Z,98138.03
2023-01-07T05:57:23.069Z,98136.56
2023-01-07T05:59:56.112Z,98122.28
2023-01-07T06:02:29.174Z,98126.50
2023-01-07T06:05:02.227Z,98126.50
2023-01-07T06:07:35.574Z,98129.06
2023-01-07T06:10:09.714Z,98131.81
2023-01-07T06:12:44.175Z,98130.91
2023-01-07T06:15:17.350Z,98127.38
2023-01-07T06:17:50.407Z,98129.06
2023-01-07T06:20:24.964Z,98126.72
2023-01-07T06:22:58.067Z,98133.56
2023-01-07T06:25:31.192Z,98132.91
2023-01-07T06:28:06.161Z,98126.72
2023-01-07T06:30:39.206Z,98127.78
2023-01-07T06:33:12.263Z,98120.72
2023-01-07T06:35:47.118Z,98127.59
2023-01-07T06:38:20.203Z,98129.50
2023-01-07T06:40:53.427Z,98123.50
2023-01-07T06:43:27.855Z,98124.38
2023-01-07T06:46:01.138Z,98118.09
2023-01-07T06:48:34.146Z,98115.88
2023-01-07T06:51:07.376Z,98110.00
2023-01-07T06:53:40.440Z,98111.09
2023-01-07T06:56:13.501Z,98102.38
2023-01-07T06:58:47.962Z,98100.78
2023-01-07T07:01:21.589Z,98101.00
2023-01-07T07:03:54.655Z,98101.00
2023-01-07T07:06:27.887Z,98090.81
2023-01-07T07:09:00.959Z,98090.81
2023-01-07T07:11:34.093Z,98085.50
2023-01-07T07:14:09.394Z,98084.63
2023-01-07T07:16:42.500Z,98082.88
2023-01-07T07:19:15.536Z,98082.75
2023-01-07T07:21:48.742Z,98086.88
2023-01-07T07:24:21.755Z,98086.31
2023-01-07T07:26:54.925Z,98078.53
2023-01-07T07:29:29.295Z,98076.91
2023-01-07T07:32:02.379Z,98085.50
2023-01-07T07:34:36.077Z,98075.31
2023-01-07T07:37:09.277Z,98078.88
2023-01-07T07:39:42.296Z,98077.13
2023-01-07T07:42:15.360Z,98073.78
2023-01-07T07:44:50.101Z,98073.78
2023-01-07T07:47:23.150Z,98073.78
2023-01-07T07:49:56.133Z,98071.16
2023-01-07T07:52:29.242Z,98071.81
2023-01-07T07:55:20.492Z,98061.84
2023-01-07T07:57:55.939Z,98068.69
2023-01-07T08:00:30.396Z,98067.38
2023-01-07T08:03:03.881Z,98064.03
2023-01-07T08:05:37.282Z,98069.34
2023-01-07T08:08:11.532Z,98055.41
2023-01-07T08:10:44.807Z,98066.03
2023-01-07T08:13:19.209Z,98062.03
2023-01-07T08:15:53.708Z,98065.38
2023-01-07T08:18:26.818Z,98054.47
2023-01-07T08:20:59.989Z,98057.22
2023-01-07T08:23:34.750Z,98053.13
2023-01-07T08:26:08.016Z,98049.91
2023-01-07T08:28:41.086Z,98049.34
2023-01-07T08:31:15.586Z,98046.09
2023-01-07T08:33:48.681Z,98045.53
2023-01-07T08:36:23.288Z,98046.31
2023-01-07T08:38:57.019Z,98047.28
2023-01-07T08:41:30.121Z,98040.66
2023-01-07T08:44:03.203Z,98039.09
2023-01-07T08:46:38.289Z,98031.72
2023-01-07T08:49:11.671Z,98032.06
2023-01-07T08:51:44.766Z,98027.34
2023-01-07T08:54:17.974Z,98028.91
2023-01-07T08:56:51.023Z,98035.81
2023-01-07T08:59:24.057Z,98022.25
2023-01-07T09:01:58.631Z,98025.97
2023-01-07T09:04:32.045Z,98024.81
2023-01-07T09:07:05.219Z,98026.38
2023-01-07T09:09:39.313Z,98016.75
2023-01-07T09:12:12.362Z,98026.41
2023-01-07T09:14:46.432Z,98024.25
2023-01-07T09:17:22.883Z,98017.00
2023-01-07T09:19:57.091Z,98019.25
2023-01-07T09:22:30.694Z,98024.53
2023-01-07T09:25:04.081Z,98028.28
2023-01-07T09:27:37.345Z,98020.25
2023-01-07T09:30:11.582Z,98011.94
2023-01-07T09:32:46.516Z,98013.75
2023-01-07T09:35:19.823Z,98012.47
2023-01-07T09:37:52.881Z,98005.91
2023-01-07T09:40:30.142Z,98007.97
2023-01-07T09:43:08.798Z,98005.88
2023-01-07T09:45:47.053Z,98011.28
2023-01-07T09:48:26.051Z,98014.81
2023-01-07T09:51:03.627Z,98015.19
2023-01-07T09:53:40.227Z,98017.81
2023-01-07T09:56:21.886Z,98018.50
2023-01-07T09:58:56.380Z,98018.97
2023-01-07T10:01:38.881Z,98019.91
2023-01-07T10:04:29.954Z,98015.53
2023-01-07T10:07:22.252Z,98020.97
2023-01-07T10:10:09.059Z,98020.22
2023-01-07T10:12:51.191Z,98018.38
2023-01-07T10:15:47.296Z,98005.00
2023-01-07T10:18:37.044Z,98006.84
2023-01-07T10:21:19.445Z,98001.75
2023-01-07T10:23:58.513Z,97994.00
2023-01-07T10:26:37.002Z,97987.66
2023-01-07T10:29:15.051Z,97989.59
2023-01-07T10:31:49.940Z,97985.34
2023-01-07T10:34:28.895Z,97983.78
2023-01-07T10:37:07.977Z,97974.09
2023-01-07T10:39:54.468Z,97973.19
2023-01-07T10:42:35.907Z,97967.63
2023-01-07T10:45:26.189Z,97955.03
2023-01-07T10:48:40.595Z,97947.13
2023-01-07T10:51:38.731Z,97946.84
2023-01-07T10:54:33.055Z,97938.06
2023-01-07T10:57:11.933Z,97933.47
2023-01-07T10:59:50.768Z,97933.28
2023-01-07T11:02:27.470Z,97935.03
2023-01-07T11:05:01.432Z,97932.94
2023-01-07T11:07:44.765Z,97926.75
2023-01-07T11:10:23.952Z,97920.84
2023-01-07T11:13:01.587Z,97923.94
2023-01-07T11:15:39.233Z,97918.91
2023-01-07T11:18:18.224Z,97912.38
2023-01-07T11:20:53.323Z,97912.28
2023-01-07T11:23:33.424Z,97904.16
2023-01-07T11:26:19.881Z,97900.03
2023-01-07T11:28:56.204Z,97904.44
2023-01-07T11:31:52.320Z,97904.06
2023-01-07T11:34:29.243Z,97894.56
2023-01-07T11:37:02.878Z,97891.28
2023-01-07T11:39:37.348Z,97888.13
2023-01-07T11:42:36.933Z,97883.06
2023-01-07T11:45:16.469Z,97874.16
2023-01-07T11:47:59.282Z,97872.03
2023-01-07T11:50:37.345Z,97865.41
2023-01-07T11:53:30.946Z,97860.06
2023-01-07T11:56:07.552Z,97856.94
2023-01-07T11:58:44.468Z,97847.44
2023-01-07T12:01:19.890Z,97838.78
2023-01-07T12:04:15.257Z,97834.16
2023-01-07T12:06:51.367Z,97831.84
2023-01-07T12:09:41.184Z,97832.72
2023-01-07T12:12:36.794Z,97822.19
2023-01-07T12:15:20.905Z,97819.75
2023-01-07T12:18:29.343Z,97816.03
2023-01-07T12:21:36.004Z,97809.28
2023-01-07T12:24:36.997Z,97803.44
2023-01-07T12:27:24.492Z,97792.69
2023-01-07T12:30:23.889Z,97786.66
2023-01-07T12:33:12.365Z,97789.53
2023-01-07T12:35:46.600Z,97790.13
2023-01-07T12:38:26.321Z,97786.44
2023-01-07T12:41:03.093Z,97768.16
2023-01-07T12:43:41.052Z,97767.34
2023-01-07T12:46:19.303Z,97753.44
2023-01-07T12:49:06.667Z,97762.09
2023-01-07T12:51:45.504Z,97755.19
2023-01-07T12:54:23.769Z,97747.28
2023-01-07T12:57:01.300Z,97737.75
2023-01-07T12:59:46.257Z,97735.75
2023-01-07T13:02:35.414Z,97726.41
2023-01-07T13:05:18.012Z,97732.16
2023-01-07T13:07:56.869Z,97731.84
2023-01-07T13:10:37.257Z,97723.59
2023-01-07T13:13:18.277Z,97726.72
2023-01-07T13:15:52.043Z,97724.41
2023-01-07T13:18:26.587Z,97710.91
2023-01-07T13:21:07.550Z,97717.66
2023-01-07T13:24:07.647Z,97707.38
2023-01-07T13:26:50.484Z,97694.00
2023-01-07T13:29:41.588Z,97687.88
2023-01-07T13:32:45.548Z,97683.16
2023-01-07T13:35:49.772Z,97688.94
2023-01-07T13:38:51.310Z,97688.94
2023-01-07T13:41:40.626Z,97685.88
2023-01-07T13:44:59.699Z,97687.31
2023-01-07T13:47:42.582Z,97686.91
2023-01-07T13:50:25.337Z,97679.06
2023-01-07T13:53:02.369Z,97672.31
2023-01-07T13:55:41.755Z,97670.38
2023-01-07T13:58:40.992Z,97669.94
2023-01-07T14:01:15.990Z,97661.34
2023-01-07T14:03:50.786Z,97659.72
2023-01-07T14:06:40.163Z,97661.19
2023-01-07T14:09:38.657Z,97667.19
2023-01-07T14:13:07.245Z,97664.91
2023-01-07T14:16:03.593Z,97659.31
2023-01-07T14:19:10.315Z,97662.50
2023-01-07T14:21:59.146Z,97651.81
2023-01-07T14:25:06.392Z,97653.84
2023-01-07T14:27:55.826Z,97651.50
2023-01-07T14:30:33.924Z,97651.63
2023-01-07T14:33:08.221Z,97655.09
2023-01-07T14:35:44.097Z,97657.78
2023-01-07T14:39:00.226Z,97664.69
2023-01-07T14:41:33.240Z,97658.00
2023-01-07T14:44:31.433Z,97662.94
2023-01-07T14:47:04.516Z,97657.53
2023-01-07T14:49:56.599Z,97659.09
2023-01-07T14:53:00.602Z,97654.13
2023-01-07T14:56:10.896Z,97660.38
2023-01-07T14:59:17.897Z,97658.91
2023-01-07T15:02:42.278Z,97662.72
2023-01-07T15:06:01.900Z,97661.28
2023-01-07T15:09:05.303Z,97661.75
2023-01-07T15:12:00.606Z,97656.81
2023-01-07T15:14:58.688Z,97658.94
2023-01-07T15:17:33.101Z,97664.50
2023-01-07T15:20:10.248Z,97663.09
2023-01-07T15:23:07.468Z,97667.53
2023-01-07T15:25:50.770Z,97662.09
2023-01-07T15:28:42.746Z,97662.97
2023-01-07T15:31:23.855Z,97669.41
2023-01-07T15:34:11.335Z,97665.53
2023-01-07T15:36:48.082Z,97665.41
2023-01-07T15:39:25.159Z,97667.34
2023-01-07T15:42:00.745Z,97662.75
2023-01-07T15:44:40.939Z,97661.34
2023-01-07T15:47:36.799Z,97666.09
2023-01-07T15:50:29.890Z,97659.53
2023-01-07T15:53:17.723Z,97662.59
2023-01-07T15:55:59.182Z,97665.44
2023-01-07T15:58:37.605Z,97666.88
2023-01-07T16:01:18.841Z,97664.72
2023-01-07T16:03:55.011Z,97654.38
2023-01-07T16:06:39.336Z,97655.97
2023-01-07T16:09:19.473Z,97655.56
2023-01-07T16:11:52.927Z,97665.53
2023-01-07T16:14:28.188Z,97653.78
2023-01-07T16:17:15.291Z,97650.09
2023-01-07T16:19:48.417Z,97645.38
2023-01-07T16:22:23.886Z,97646.00
2023-01-07T16:24:56.918Z,97645.81
2023-01-07T16:27:31.659Z,97644.81
2023-01-07T16:30:05.840Z,97647.97
2023-01-07T16:32:40.341Z,97646.69
2023-01-07T16:35:20.613Z,97645.91
2023-01-07T16:37:54.401Z,97652.44
2023-01-07T16:40:37.172Z,97650.88
2023-01-07T16:43:33.767Z,97650.28
2023-01-07T16:46:23.409Z,97655.00
2023-01-07T16:49:24.416Z,97653.81
2023-01-07T16:52:07.942Z,97652.63
2023-01-07T16:54:44.289Z,97656.75
2023-01-07T16:57:38.821Z,97666.13
2023-01-07T17:00:20.184Z,97671.97
2023-01-07T17:02:58.652Z,97667.81
2023-01-07T17:05:33.698Z,97668.78
2023-01-07T17:08:16.449Z,97669.44
2023-01-07T17:11:00.742Z,97673.38
2023-01-07T17:13:38.013Z,97674.91
2023-01-07T17:16:33.656Z,97669.03
2023-01-07T17:19:27.319Z,97667.66
2023-01-07T17:22:01.768Z,97671.19
2023-01-07T17:24:50.595Z,97664.38
2023-01-07T17:27:28.457Z,97661.50
2023-01-07T17:30:04.300Z,97663.00
2023-01-07T17:32:39.512Z,97654.75
2023-01-07T17:35:19.788Z,97651.00
2023-01-07T17:37:56.724Z,97649.53
2023-01-07T17:40:29.861Z,97646.47
2023-01-07T17:43:20.343Z,97653.34
2023-01-07T17:45:53.365Z,97636.66
2023-01-07T17:48:26.439Z,97633.13
2023-01-07T17:51:00.668Z,97629.59
2023-01-07T17:53:42.212Z,97638.00
2023-01-07T17:56:15.972Z,97639.53
2023-01-07T17:58:49.331Z,97632.03
2023-01-07T18:01:24.328Z,97633.81
2023-01-07T18:03:57.465Z,97625.56
2023-01-07T18:06:34.815Z,97626.56
2023-01-07T18:09:11.384Z,97629.59
2023-01-07T18:12:05.229Z,97623.44
2023-01-07T18:14:38.295Z,97619.47
2023-01-07T18:17:11.332Z,97621.59
2023-01-07T18:19:44.389Z,97624.78
2023-01-07T18:22:17.450Z,97626.06
2023-01-07T18:24:51.999Z,97624.72
2023-01-07T18:27:25.049Z,97622.94
2023-01-07T18:29:58.113Z,97621.19
2023-01-07T18:32:31.138Z,97624.03
2023-01-07T18:35:04.251Z,97629.44
2023-01-07T18:37:37.726Z,97633.22
2023-01-07T18:40:12.854Z,97634.97
2023-01-07T18:42:45.856Z,97634.59
2023-01-07T18:45:19.067Z,97637.28
2023-01-07T18:47:52.124Z,97641.44
2023-01-07T18:50:25.214Z,97643.09
2023-01-07T18:52:59.523Z,97638.81
2023-01-07T18:55:33.944Z,97631.75
2023-01-07T18:58:07.873Z,97628.09
2023-01-07T19:00:41.058Z,97629.25
2023-01-07T19:03:14.236Z,97627.59
2023-01-07T19:05:47.396Z,97615.13
2023-01-07T19:08:20.410Z,97620.09
2023-01-07T19:10:54.813Z,97616.88
2023-01-07T19:13:28.805Z,97611.81
2023-01-07T19:16:02.462Z,97605.09
2023-01-07T19:18:35.750Z,97603.09
2023-01-07T19:21:12.106Z,97600.97
2023-01-07T19:23:45.198Z,97609.56
2023-01-07T19:26:20.844Z,97617.13
2023-01-07T19:28:53.869Z,97615.09
2023-01-07T19:31:27.321Z,97615.50
2023-01-07T19:34:00.449Z,97617.72
2023-01-07T19:36:33.540Z,97610.63
2023-01-07T19:39:06.974Z,97618.41
2023-01-07T19:41:41.368Z,97616.53
2023-01-07T19:44:14.795Z,97618.34
2023-01-07T19:46:47.839Z,97597.41
2023-01-07T19:49:20.891Z,97604.78
2023-01-07T19:51:53.884Z,97605.00
2023-01-07T19:54:26.929Z,97598.13
2023-01-07T19:57:01.242Z,97599.41
2023-01-07T19:59:35.030Z,97595.09
2023-01-07T20:02:08.359Z,97602.91
2023-01-07T20:04:42.953Z,97599.91
2023-01-07T20:07:15.993Z,97603.56
2023-01-07T20:09:49.132Z,97589.06
2023-01-07T20:12:23.551Z,97610.41
2023-01-07T20:14:56.561Z,97600.53
2023-01-07T20:17:29.596Z,97605.59
2023-01-07T20:20:02.640Z,97604.38
2023-01-07T20:22:35.715Z,97597.56
2023-01-07T20:25:10.575Z,97590.28
2023-01-07T20:27:44.957Z,97582.56
2023-01-07T20:30:18.067Z,97581.03
2023-01-07T20:32:51.745Z,97576.31
2023-01-07T20:35:24.775Z,97576.09
2023-01-07T20:37:57.820Z,97562.56
2023-01-07T20:40:30.845Z,97567.03
2023-01-07T20:43:05.334Z,97565.16
2023-01-07T20:45:38.659Z,97565.41
2023-01-07T20:48:12.535Z,97565.50
2023-01-07T20:50:45.515Z,97558.56
2023-01-07T20:53:18.622Z,97553.63
2023-01-07T20:55:57.827Z,97544.16
2023-01-07T20:58:35.092Z,97548.09
2023-01-07T21:01:11.133Z,97555.84
2023-01-07T21:03:44.345Z,97555.13
2023-01-07T21:06:19.549Z,97544.72
2023-01-07T21:08:52.633Z,97548.00
2023-01-07T21:11:25.958Z,97541.25
2023-01-07T21:14:00.380Z,97547.97
2023-01-07T21:16:33.472Z,97551.03
2023-01-07T21:19:07.005Z,97548.91
2023-01-07T21:21:40.039Z,97548.28
2023-01-07T21:24:16.971Z,97550.44
2023-01-07T21:26:50.035Z,97545.91
2023-01-07T21:29:24.417Z,97552.59
2023-01-07T21:31:57.637Z,97554.94
2023-01-07T21:34:30.760Z,97554.31
2023-01-07T21:37:03.832Z,97549.38
2023-01-07T21:39:37.032Z,97540.06
2023-01-07T21:42:10.156Z,97543.31
2023-01-07T21:44:44.610Z,97547.13
2023-01-07T21:47:17.681Z,97546.50
2023-01-07T21:49:51.622Z,97535.81
2023-01-07T21:52:24.765Z,97535.06
2023-01-07T21:54:57.838Z,97533.44
2023-01-07T21:57:30.913Z,97535.81
2023-01-07T22:00:07.757Z,97534.72
2023-01-07T22:02:40.825Z,97527.28
2023-01-07T22:05:13.992Z,97530.78
2023-01-07T22:07:47.031Z,97523.75
2023-01-07T22:10:20.146Z,97522.97
2023-01-07T22:12:53.174Z,97530.06
2023-01-07T22:15:27.562Z,97527.84
2023-01-07T22:18:00.586Z,97536.03
2023-01-07T22:20:33.656Z,97529.34
2023-01-07T22:23:06.730Z,97520.66
2023-01-07T22:25:39.734Z,97532.66
2023-01-07T22:28:13.685Z,97533.13
2023-01-07T22:30:53.396Z,97517.75
2023-01-07T22:33:26.542Z,97515.47
2023-01-07T22:36:00.721Z,97511.97
2023-01-07T22:38:34.293Z,97513.22
2023-01-07T22:41:09.436Z,97510.22
2023-01-07T22:43:42.930Z,97504.41
2023-01-07T22:46:22.083Z,97509.59
2023-01-07T22:48:55.229Z,97498.97
2023-01-07T22:51:32.611Z,97489.75
2023-01-07T22:54:06.038Z,97504.88
2023-01-07T22:56:39.256Z,97507.41
2023-01-07T22:59:12.431Z,97489.00
2023-01-07T23:01:46.877Z,97501.34
2023-01-07T23:04:19.899Z,97500.50
2023-01-07T23:06:52.973Z,97497.34
2023-01-07T23:09:26.025Z,97490.03
2023-01-07T23:12:00.842Z,97488.19
2023-01-07T23:14:33.892Z,97485.75
2023-01-07T23:17:10.009Z,97474.78
2023-01-07T23:19:43.024Z,97477.41
2023-01-07T23:22:16.041Z,97481.81
2023-01-07T23:24:49.071Z,97466.00
2023-01-07T23:27:22.126Z,97462.09
2023-01-07T23:29:55.149Z,97462.03
2023-01-07T23:32:29.532Z,97454.94
2023-01-07T23:35:02.778Z,97460.13
2023-01-07T23:37:35.773Z,97462.50
2023-01-07T23:40:10.876Z,97457.72
2023-01-07T23:42:49.045Z,97459.59
2023-01-07T23:45:22.133Z,97452.56
2023-01-07T23:47:56.562Z,97438.69
2023-01-07T23:50:29.626Z,97435.63
2023-01-07T23:53:02.662Z,97451.91
2023-01-07T23:55:36.111Z,97441.56
2023-01-07T23:58:09.127Z,97440.69
